sensor_id;sensor_type;location;lat;lon;timestamp;P1;durP1;ratioP1;P2;durP2;ratioP2
44925;SDS011;30662;51.210;7.656;2022-07-09T00:00:49;6.70;;;3.10;;
44925;SDS011;30662;51.210;7.656;2022-07-09T00:03:15;5.85;;;3.20;;
44925;SDS011;30662;51.210;7.656;2022-07-09T00:05:41;4.38;;;3.60;;
44925;SDS011;30662;51.210;7.656;2022-07-09T00:08:07;6.50;;;3.40;;
44925;SDS011;30662;51.210;7.656;2022-07-09T00:10:32;7.45;;;3.55;;
44925;SDS011;30662;51.210;7.656;2022-07-09T00:12:58;10.48;;;3.40;;
44925;SDS011;30662;51.210;7.656;2022-07-09T00:15:24;7.13;;;3.13;;
44925;SDS011;30662;51.210;7.656;2022-07-09T00:17:51;6.18;;;3.90;;
44925;SDS011;30662;51.210;7.656;2022-07-09T00:20:17;7.85;;;3.65;;
44925;SDS011;30662;51.210;7.656;2022-07-09T00:22:43;8.77;;;3.70;;
44925;SDS011;30662;51.210;7.656;2022-07-09T00:25:09;11.50;;;4.03;;
44925;SDS011;30662;51.210;7.656;2022-07-09T00:27:34;8.05;;;3.78;;
44925;SDS011;30662;51.210;7.656;2022-07-09T00:30:00;8.63;;;3.85;;
44925;SDS011;30662;51.210;7.656;2022-07-09T00:32:27;6.88;;;3.95;;
44925;SDS011;30662;51.210;7.656;2022-07-09T00:34:52;5.43;;;3.65;;
44925;SDS011;30662;51.210;7.656;2022-07-09T00:37:18;7.43;;;4.13;;
44925;SDS011;30662;51.210;7.656;2022-07-09T00:39:45;11.35;;;4.32;;
44925;SDS011;30662;51.210;7.656;2022-07-09T00:42:11;9.85;;;3.90;;
44925;SDS011;30662;51.210;7.656;2022-07-09T00:44:37;6.40;;;3.50;;
44925;SDS011;30662;51.210;7.656;2022-07-09T00:47:04;7.60;;;3.80;;
44925;SDS011;30662;51.210;7.656;2022-07-09T00:49:34;6.90;;;4.35;;
44925;SDS011;30662;51.210;7.656;2022-07-09T00:52:03;10.27;;;4.55;;
44925;SDS011;30662;51.210;7.656;2022-07-09T00:54:30;9.30;;;4.65;;
44925;SDS011;30662;51.210;7.656;2022-07-09T00:56:56;6.50;;;3.58;;
44925;SDS011;30662;51.210;7.656;2022-07-09T00:59:23;7.18;;;4.60;;
44925;SDS011;30662;51.210;7.656;2022-07-09T01:01:49;6.68;;;3.97;;
44925;SDS011;30662;51.210;7.656;2022-07-09T01:04:16;8.88;;;4.38;;
44925;SDS011;30662;51.210;7.656;2022-07-09T01:06:43;5.88;;;4.20;;
44925;SDS011;30662;51.210;7.656;2022-07-09T01:09:09;9.38;;;4.03;;
44925;SDS011;30662;51.210;7.656;2022-07-09T01:11:35;12.20;;;4.75;;
44925;SDS011;30662;51.210;7.656;2022-07-09T01:14:01;10.77;;;4.78;;
44925;SDS011;30662;51.210;7.656;2022-07-09T01:16:31;7.82;;;4.53;;
44925;SDS011;30662;51.210;7.656;2022-07-09T01:18:58;9.38;;;5.50;;
44925;SDS011;30662;51.210;7.656;2022-07-09T01:21:24;11.77;;;5.10;;
44925;SDS011;30662;51.210;7.656;2022-07-09T01:23:50;9.93;;;4.78;;
44925;SDS011;30662;51.210;7.656;2022-07-09T01:26:16;7.63;;;5.13;;
44925;SDS011;30662;51.210;7.656;2022-07-09T01:28:45;7.00;;;4.60;;
44925;SDS011;30662;51.210;7.656;2022-07-09T01:31:12;14.88;;;5.78;;
44925;SDS011;30662;51.210;7.656;2022-07-09T01:33:38;10.88;;;6.05;;
44925;SDS011;30662;51.210;7.656;2022-07-09T01:36:05;10.15;;;6.45;;
44925;SDS011;30662;51.210;7.656;2022-07-09T01:38:32;10.75;;;6.40;;
44925;SDS011;30662;51.210;7.656;2022-07-09T01:40:58;11.60;;;7.90;;
44925;SDS011;30662;51.210;7.656;2022-07-09T01:43:24;10.15;;;7.78;;
44925;SDS011;30662;51.210;7.656;2022-07-09T01:45:50;12.10;;;7.28;;
44925;SDS011;30662;51.210;7.656;2022-07-09T01:48:16;13.25;;;7.32;;
44925;SDS011;30662;51.210;7.656;2022-07-09T01:50:42;10.23;;;7.95;;
44925;SDS011;30662;51.210;7.656;2022-07-09T01:53:08;15.45;;;7.82;;
44925;SDS011;30662;51.210;7.656;2022-07-09T01:55:34;11.90;;;7.50;;
44925;SDS011;30662;51.210;7.656;2022-07-09T01:58:00;13.40;;;8.63;;
44925;SDS011;30662;51.210;7.656;2022-07-09T02:00:26;12.43;;;8.07;;
44925;SDS011;30662;51.210;7.656;2022-07-09T02:02:54;12.02;;;8.70;;
44925;SDS011;30662;51.210;7.656;2022-07-09T02:05:21;14.27;;;8.98;;
44925;SDS011;30662;51.210;7.656;2022-07-09T02:07:47;11.95;;;8.82;;
44925;SDS011;30662;51.210;7.656;2022-07-09T02:10:14;13.30;;;8.70;;
44925;SDS011;30662;51.210;7.656;2022-07-09T02:12:40;15.02;;;9.45;;
44925;SDS011;30662;51.210;7.656;2022-07-09T02:15:06;15.13;;;9.20;;
44925;SDS011;30662;51.210;7.656;2022-07-09T02:17:34;16.60;;;8.77;;
44925;SDS011;30662;51.210;7.656;2022-07-09T02:20:00;14.32;;;9.15;;
44925;SDS011;30662;51.210;7.656;2022-07-09T02:22:26;13.10;;;9.07;;
44925;SDS011;30662;51.210;7.656;2022-07-09T02:24:53;18.02;;;10.23;;
44925;SDS011;30662;51.210;7.656;2022-07-09T02:27:18;13.32;;;9.95;;
44925;SDS011;30662;51.210;7.656;2022-07-09T02:29:44;11.65;;;9.45;;
44925;SDS011;30662;51.210;7.656;2022-07-09T02:32:10;12.75;;;10.50;;
44925;SDS011;30662;51.210;7.656;2022-07-09T02:34:37;13.18;;;10.70;;
44925;SDS011;30662;51.210;7.656;2022-07-09T02:37:04;13.93;;;10.77;;
44925;SDS011;30662;51.210;7.656;2022-07-09T02:39:30;15.68;;;10.88;;
44925;SDS011;30662;51.210;7.656;2022-07-09T02:41:56;15.02;;;10.32;;
44925;SDS011;30662;51.210;7.656;2022-07-09T02:44:22;14.95;;;10.95;;
44925;SDS011;30662;51.210;7.656;2022-07-09T02:46:48;19.10;;;12.60;;
44925;SDS011;30662;51.210;7.656;2022-07-09T02:49:15;17.13;;;10.90;;
44925;SDS011;30662;51.210;7.656;2022-07-09T02:51:41;17.58;;;12.82;;
44925;SDS011;30662;51.210;7.656;2022-07-09T02:54:08;16.40;;;12.50;;
44925;SDS011;30662;51.210;7.656;2022-07-09T02:56:34;15.25;;;12.88;;
44925;SDS011;30662;51.210;7.656;2022-07-09T02:59:00;18.08;;;14.23;;
44925;SDS011;30662;51.210;7.656;2022-07-09T03:01:26;14.85;;;13.32;;
44925;SDS011;30662;51.210;7.656;2022-07-09T03:03:53;19.38;;;14.63;;
44925;SDS011;30662;51.210;7.656;2022-07-09T03:06:19;16.88;;;15.07;;
44925;SDS011;30662;51.210;7.656;2022-07-09T03:08:45;16.42;;;14.48;;
44925;SDS011;30662;51.210;7.656;2022-07-09T03:11:10;18.25;;;14.48;;
44925;SDS011;30662;51.210;7.656;2022-07-09T03:13:36;20.30;;;15.27;;
44925;SDS011;30662;51.210;7.656;2022-07-09T03:16:03;18.75;;;15.85;;
44925;SDS011;30662;51.210;7.656;2022-07-09T03:18:30;18.27;;;15.40;;
44925;SDS011;30662;51.210;7.656;2022-07-09T03:20:56;20.17;;;17.00;;
44925;SDS011;30662;51.210;7.656;2022-07-09T03:23:22;21.25;;;17.52;;
44925;SDS011;30662;51.210;7.656;2022-07-09T03:25:48;27.17;;;17.60;;
44925;SDS011;30662;51.210;7.656;2022-07-09T03:28:14;20.45;;;17.23;;
44925;SDS011;30662;51.210;7.656;2022-07-09T03:30:40;21.95;;;18.67;;
44925;SDS011;30662;51.210;7.656;2022-07-09T03:33:06;21.50;;;17.90;;
44925;SDS011;30662;51.210;7.656;2022-07-09T03:35:32;20.38;;;18.00;;
44925;SDS011;30662;51.210;7.656;2022-07-09T03:37:58;25.13;;;21.38;;
44925;SDS011;30662;51.210;7.656;2022-07-09T03:40:24;30.30;;;21.20;;
44925;SDS011;30662;51.210;7.656;2022-07-09T03:42:50;31.60;;;22.08;;
44925;SDS011;30662;51.210;7.656;2022-07-09T03:45:16;23.65;;;20.35;;
44925;SDS011;30662;51.210;7.656;2022-07-09T03:47:42;27.40;;;20.48;;
44925;SDS011;30662;51.210;7.656;2022-07-09T03:50:08;26.25;;;20.25;;
44925;SDS011;30662;51.210;7.656;2022-07-09T03:52:34;26.17;;;19.83;;
44925;SDS011;30662;51.210;7.656;2022-07-09T03:55:00;23.85;;;18.77;;
44925;SDS011;30662;51.210;7.656;2022-07-09T03:57:26;24.50;;;19.75;;
44925;SDS011;30662;51.210;7.656;2022-07-09T03:59:52;24.85;;;20.65;;
44925;SDS011;30662;51.210;7.656;2022-07-09T04:02:18;24.42;;;20.50;;
44925;SDS011;30662;51.210;7.656;2022-07-09T04:04:44;24.52;;;20.35;;
44925;SDS011;30662;51.210;7.656;2022-07-09T04:07:10;24.55;;;20.55;;
44925;SDS011;30662;51.210;7.656;2022-07-09T04:09:36;21.15;;;18.90;;
44925;SDS011;30662;51.210;7.656;2022-07-09T04:12:02;28.00;;;21.73;;
44925;SDS011;30662;51.210;7.656;2022-07-09T04:14:28;21.85;;;18.42;;
44925;SDS011;30662;51.210;7.656;2022-07-09T04:16:54;26.50;;;18.50;;
44925;SDS011;30662;51.210;7.656;2022-07-09T04:19:20;24.58;;;18.77;;
44925;SDS011;30662;51.210;7.656;2022-07-09T04:21:46;22.77;;;18.33;;
44925;SDS011;30662;51.210;7.656;2022-07-09T04:24:12;22.00;;;18.45;;
44925;SDS011;30662;51.210;7.656;2022-07-09T04:26:42;23.77;;;18.58;;
44925;SDS011;30662;51.210;7.656;2022-07-09T04:29:08;20.50;;;17.83;;
44925;SDS011;30662;51.210;7.656;2022-07-09T04:31:34;19.65;;;16.77;;
44925;SDS011;30662;51.210;7.656;2022-07-09T04:34:00;23.67;;;17.25;;
44925;SDS011;30662;51.210;7.656;2022-07-09T04:36:26;20.13;;;15.82;;
44925;SDS011;30662;51.210;7.656;2022-07-09T04:38:53;20.73;;;17.13;;
44925;SDS011;30662;51.210;7.656;2022-07-09T04:41:20;21.75;;;15.63;;
44925;SDS011;30662;51.210;7.656;2022-07-09T04:43:46;17.40;;;15.30;;
44925;SDS011;30662;51.210;7.656;2022-07-09T04:46:12;17.73;;;15.68;;
44925;SDS011;30662;51.210;7.656;2022-07-09T04:48:39;21.33;;;17.55;;
44925;SDS011;30662;51.210;7.656;2022-07-09T04:51:05;21.25;;;15.93;;
44925;SDS011;30662;51.210;7.656;2022-07-09T04:53:31;19.27;;;14.95;;
44925;SDS011;30662;51.210;7.656;2022-07-09T04:55:57;18.35;;;14.13;;
44925;SDS011;30662;51.210;7.656;2022-07-09T04:58:23;16.42;;;14.00;;
44925;SDS011;30662;51.210;7.656;2022-07-09T05:00:49;21.45;;;14.23;;
44925;SDS011;30662;51.210;7.656;2022-07-09T05:03:15;18.08;;;13.80;;
44925;SDS011;30662;51.210;7.656;2022-07-09T05:05:41;18.90;;;13.90;;
44925;SDS011;30662;51.210;7.656;2022-07-09T05:08:15;15.70;;;14.20;;
44925;SDS011;30662;51.210;7.656;2022-07-09T05:10:41;21.55;;;13.40;;
44925;SDS011;30662;51.210;7.656;2022-07-09T05:13:07;20.58;;;13.65;;
44925;SDS011;30662;51.210;7.656;2022-07-09T05:15:33;15.98;;;12.52;;
44925;SDS011;30662;51.210;7.656;2022-07-09T05:17:59;16.13;;;14.45;;
44925;SDS011;30662;51.210;7.656;2022-07-09T05:20:25;16.80;;;13.68;;
44925;SDS011;30662;51.210;7.656;2022-07-09T05:22:51;16.90;;;14.02;;
44925;SDS011;30662;51.210;7.656;2022-07-09T05:25:17;16.55;;;12.05;;
44925;SDS011;30662;51.210;7.656;2022-07-09T05:27:44;17.02;;;12.02;;
44925;SDS011;30662;51.210;7.656;2022-07-09T05:30:11;15.70;;;12.30;;
44925;SDS011;30662;51.210;7.656;2022-07-09T05:32:44;17.00;;;12.75;;
44925;SDS011;30662;51.210;7.656;2022-07-09T05:35:10;14.52;;;13.00;;
44925;SDS011;30662;51.210;7.656;2022-07-09T05:37:43;15.82;;;13.35;;
44925;SDS011;30662;51.210;7.656;2022-07-09T05:40:09;17.75;;;13.35;;
44925;SDS011;30662;51.210;7.656;2022-07-09T05:42:36;18.15;;;13.35;;
44925;SDS011;30662;51.210;7.656;2022-07-09T05:45:02;14.85;;;12.98;;
44925;SDS011;30662;51.210;7.656;2022-07-09T05:47:28;15.13;;;11.98;;
44925;SDS011;30662;51.210;7.656;2022-07-09T05:49:53;16.25;;;12.13;;
44925;SDS011;30662;51.210;7.656;2022-07-09T05:52:19;13.23;;;11.68;;
44925;SDS011;30662;51.210;7.656;2022-07-09T05:54:45;14.38;;;11.60;;
44925;SDS011;30662;51.210;7.656;2022-07-09T05:57:11;12.30;;;10.25;;
44925;SDS011;30662;51.210;7.656;2022-07-09T05:59:37;13.02;;;11.65;;
44925;SDS011;30662;51.210;7.656;2022-07-09T06:02:03;16.05;;;11.40;;
44925;SDS011;30662;51.210;7.656;2022-07-09T06:04:30;16.23;;;12.98;;
44925;SDS011;30662;51.210;7.656;2022-07-09T06:06:56;14.25;;;10.38;;
44925;SDS011;30662;51.210;7.656;2022-07-09T06:09:22;14.30;;;10.70;;
44925;SDS011;30662;51.210;7.656;2022-07-09T06:11:48;13.27;;;9.57;;
44925;SDS011;30662;51.210;7.656;2022-07-09T06:14:14;15.43;;;9.05;;
44925;SDS011;30662;51.210;7.656;2022-07-09T06:16:40;9.05;;;7.43;;
44925;SDS011;30662;51.210;7.656;2022-07-09T06:19:06;9.82;;;6.63;;
44925;SDS011;30662;51.210;7.656;2022-07-09T06:21:32;9.25;;;6.25;;
44925;SDS011;30662;51.210;7.656;2022-07-09T06:23:57;7.47;;;5.15;;
44925;SDS011;30662;51.210;7.656;2022-07-09T06:26:23;8.73;;;4.13;;
44925;SDS011;30662;51.210;7.656;2022-07-09T06:28:49;6.50;;;4.72;;
44925;SDS011;30662;51.210;7.656;2022-07-09T06:31:15;6.82;;;4.22;;
44925;SDS011;30662;51.210;7.656;2022-07-09T06:33:41;9.73;;;4.25;;
44925;SDS011;30662;51.210;7.656;2022-07-09T06:36:07;4.82;;;3.08;;
44925;SDS011;30662;51.210;7.656;2022-07-09T06:38:32;3.65;;;2.47;;
44925;SDS011;30662;51.210;7.656;2022-07-09T06:43:44;4.22;;;1.50;;
44925;SDS011;30662;51.210;7.656;2022-07-09T06:46:10;4.18;;;2.90;;
44925;SDS011;30662;51.210;7.656;2022-07-09T06:48:36;3.65;;;1.63;;
44925;SDS011;30662;51.210;7.656;2022-07-09T06:51:02;1.60;;;1.00;;
44925;SDS011;30662;51.210;7.656;2022-07-09T06:53:28;2.05;;;1.13;;
44925;SDS011;30662;51.210;7.656;2022-07-09T06:55:54;1.13;;;0.95;;
44925;SDS011;30662;51.210;7.656;2022-07-09T06:58:20;4.07;;;1.25;;
44925;SDS011;30662;51.210;7.656;2022-07-09T07:00:47;3.17;;;1.20;;
44925;SDS011;30662;51.210;7.656;2022-07-09T07:03:14;2.15;;;1.00;;
44925;SDS011;30662;51.210;7.656;2022-07-09T07:05:40;1.58;;;1.10;;
44925;SDS011;30662;51.210;7.656;2022-07-09T07:08:06;1.52;;;1.20;;
44925;SDS011;30662;51.210;7.656;2022-07-09T07:10:32;3.35;;;1.17;;
44925;SDS011;30662;51.210;7.656;2022-07-09T07:12:58;1.30;;;1.00;;
44925;SDS011;30662;51.210;7.656;2022-07-09T07:15:24;3.50;;;1.63;;
44925;SDS011;30662;51.210;7.656;2022-07-09T07:17:50;2.58;;;1.23;;
44925;SDS011;30662;51.210;7.656;2022-07-09T07:20:23;1.70;;;1.00;;
44925;SDS011;30662;51.210;7.656;2022-07-09T07:22:50;2.28;;;1.27;;
44925;SDS011;30662;51.210;7.656;2022-07-09T07:25:16;4.45;;;1.50;;
44925;SDS011;30662;51.210;7.656;2022-07-09T07:27:42;3.70;;;1.52;;
44925;SDS011;30662;51.210;7.656;2022-07-09T07:30:08;1.58;;;1.30;;
44925;SDS011;30662;51.210;7.656;2022-07-09T07:32:34;2.78;;;1.30;;
44925;SDS011;30662;51.210;7.656;2022-07-09T07:35:00;2.00;;;1.20;;
44925;SDS011;30662;51.210;7.656;2022-07-09T07:37:28;2.03;;;1.27;;
44925;SDS011;30662;51.210;7.656;2022-07-09T07:39:54;2.00;;;1.42;;
44925;SDS011;30662;51.210;7.656;2022-07-09T07:42:20;2.47;;;1.45;;
44925;SDS011;30662;51.210;7.656;2022-07-09T07:44:46;2.38;;;1.55;;
44925;SDS011;30662;51.210;7.656;2022-07-09T07:47:12;2.17;;;1.13;;
44925;SDS011;30662;51.210;7.656;2022-07-09T07:49:38;1.70;;;1.10;;
44925;SDS011;30662;51.210;7.656;2022-07-09T07:52:04;2.78;;;1.42;;
44925;SDS011;30662;51.210;7.656;2022-07-09T07:54:30;1.55;;;1.00;;
44925;SDS011;30662;51.210;7.656;2022-07-09T07:56:56;1.77;;;1.38;;
44925;SDS011;30662;51.210;7.656;2022-07-09T07:59:22;1.35;;;1.05;;
44925;SDS011;30662;51.210;7.656;2022-07-09T08:01:49;2.20;;;1.42;;
44925;SDS011;30662;51.210;7.656;2022-07-09T08:04:14;3.53;;;1.23;;
44925;SDS011;30662;51.210;7.656;2022-07-09T08:06:40;3.42;;;1.15;;
44925;SDS011;30662;51.210;7.656;2022-07-09T08:09:06;3.40;;;1.15;;
44925;SDS011;30662;51.210;7.656;2022-07-09T08:11:33;2.00;;;1.23;;
44925;SDS011;30662;51.210;7.656;2022-07-09T08:13:59;2.30;;;1.10;;
44925;SDS011;30662;51.210;7.656;2022-07-09T08:16:25;2.75;;;1.38;;
44925;SDS011;30662;51.210;7.656;2022-07-09T08:18:51;1.38;;;1.02;;
44925;SDS011;30662;51.210;7.656;2022-07-09T08:21:17;1.60;;;0.95;;
44925;SDS011;30662;51.210;7.656;2022-07-09T08:23:42;1.15;;;1.02;;
44925;SDS011;30662;51.210;7.656;2022-07-09T08:28:45;1.63;;;1.20;;
44925;SDS011;30662;51.210;7.656;2022-07-09T08:31:10;1.13;;;0.90;;
44925;SDS011;30662;51.210;7.656;2022-07-09T08:33:36;1.42;;;0.80;;
44925;SDS011;30662;51.210;7.656;2022-07-09T08:36:03;1.10;;;0.80;;
44925;SDS011;30662;51.210;7.656;2022-07-09T08:38:29;1.15;;;0.82;;
44925;SDS011;30662;51.210;7.656;2022-07-09T08:40:57;1.90;;;0.73;;
44925;SDS011;30662;51.210;7.656;2022-07-09T08:43:25;1.20;;;0.90;;
44925;SDS011;30662;51.210;7.656;2022-07-09T08:45:55;1.70;;;1.10;;
44925;SDS011;30662;51.210;7.656;2022-07-09T08:48:22;0.80;;;0.70;;
44925;SDS011;30662;51.210;7.656;2022-07-09T08:50:48;1.40;;;0.65;;
44925;SDS011;30662;51.210;7.656;2022-07-09T08:53:16;1.15;;;0.70;;
44925;SDS011;30662;51.210;7.656;2022-07-09T08:55:43;1.90;;;0.70;;
44925;SDS011;30662;51.210;7.656;2022-07-09T08:58:13;1.30;;;0.63;;
44925;SDS011;30662;51.210;7.656;2022-07-09T09:00:40;1.77;;;1.08;;
44925;SDS011;30662;51.210;7.656;2022-07-09T09:03:07;1.17;;;0.75;;
44925;SDS011;30662;51.210;7.656;2022-07-09T09:05:33;2.25;;;0.80;;
44925;SDS011;30662;51.210;7.656;2022-07-09T09:07:59;1.73;;;0.90;;
44925;SDS011;30662;51.210;7.656;2022-07-09T09:10:28;0.93;;;0.68;;
44925;SDS011;30662;51.210;7.656;2022-07-09T09:12:55;2.65;;;1.45;;
44925;SDS011;30662;51.210;7.656;2022-07-09T09:15:24;0.80;;;0.70;;
44925;SDS011;30662;51.210;7.656;2022-07-09T09:17:51;1.25;;;0.80;;
44925;SDS011;30662;51.210;7.656;2022-07-09T09:20:17;1.48;;;0.82;;
44925;SDS011;30662;51.210;7.656;2022-07-09T09:22:51;1.73;;;0.73;;
44925;SDS011;30662;51.210;7.656;2022-07-09T09:25:20;3.28;;;1.15;;
44925;SDS011;30662;51.210;7.656;2022-07-09T09:28:05;1.98;;;0.90;;
44925;SDS011;30662;51.210;7.656;2022-07-09T09:30:31;1.92;;;1.00;;
44925;SDS011;30662;51.210;7.656;2022-07-09T09:33:00;1.63;;;0.85;;
44925;SDS011;30662;51.210;7.656;2022-07-09T09:35:41;1.90;;;1.05;;
44925;SDS011;30662;51.210;7.656;2022-07-09T09:38:08;2.45;;;1.77;;
44925;SDS011;30662;51.210;7.656;2022-07-09T09:40:35;3.15;;;1.60;;
44925;SDS011;30662;51.210;7.656;2022-07-09T09:43:01;3.38;;;1.50;;
44925;SDS011;30662;51.210;7.656;2022-07-09T09:45:28;3.55;;;1.42;;
44925;SDS011;30662;51.210;7.656;2022-07-09T09:47:54;4.53;;;1.63;;
44925;SDS011;30662;51.210;7.656;2022-07-09T09:50:21;5.03;;;1.85;;
44925;SDS011;30662;51.210;7.656;2022-07-09T09:52:49;4.25;;;1.42;;
44925;SDS011;30662;51.210;7.656;2022-07-09T09:55:20;3.15;;;1.88;;
44925;SDS011;30662;51.210;7.656;2022-07-09T09:57:48;4.20;;;1.90;;
44925;SDS011;30662;51.210;7.656;2022-07-09T10:00:15;5.47;;;2.60;;
44925;SDS011;30662;51.210;7.656;2022-07-09T10:02:45;5.03;;;2.70;;
44925;SDS011;30662;51.210;7.656;2022-07-09T10:05:12;5.18;;;2.42;;
44925;SDS011;30662;51.210;7.656;2022-07-09T10:07:39;6.25;;;2.38;;
44925;SDS011;30662;51.210;7.656;2022-07-09T10:10:06;5.43;;;2.40;;
44925;SDS011;30662;51.210;7.656;2022-07-09T10:12:40;6.60;;;2.30;;
44925;SDS011;30662;51.210;7.656;2022-07-09T10:15:24;4.30;;;1.48;;
44925;SDS011;30662;51.210;7.656;2022-07-09T10:17:51;2.70;;;1.65;;
44925;SDS011;30662;51.210;7.656;2022-07-09T10:20:42;2.97;;;1.75;;
44925;SDS011;30662;51.210;7.656;2022-07-09T10:23:08;4.72;;;2.22;;
44925;SDS011;30662;51.210;7.656;2022-07-09T10:25:44;5.20;;;2.00;;
44925;SDS011;30662;51.210;7.656;2022-07-09T10:28:14;3.13;;;1.70;;
44925;SDS011;30662;51.210;7.656;2022-07-09T10:30:45;5.00;;;1.90;;
44925;SDS011;30662;51.210;7.656;2022-07-09T10:33:12;4.13;;;2.10;;
44925;SDS011;30662;51.210;7.656;2022-07-09T10:35:50;4.05;;;2.17;;
44925;SDS011;30662;51.210;7.656;2022-07-09T10:38:17;2.83;;;2.13;;
44925;SDS011;30662;51.210;7.656;2022-07-09T10:40:44;6.53;;;2.35;;
44925;SDS011;30662;51.210;7.656;2022-07-09T10:43:12;4.15;;;2.20;;
44925;SDS011;30662;51.210;7.656;2022-07-09T10:45:42;3.78;;;1.90;;
44925;SDS011;30662;51.210;7.656;2022-07-09T10:48:15;2.35;;;1.80;;
44925;SDS011;30662;51.210;7.656;2022-07-09T10:50:42;3.70;;;1.50;;
44925;SDS011;30662;51.210;7.656;2022-07-09T10:53:09;5.55;;;1.90;;
44925;SDS011;30662;51.210;7.656;2022-07-09T10:55:37;4.00;;;1.77;;
44925;SDS011;30662;51.210;7.656;2022-07-09T10:58:03;4.53;;;1.98;;
44925;SDS011;30662;51.210;7.656;2022-07-09T11:00:33;3.03;;;1.40;;
44925;SDS011;30662;51.210;7.656;2022-07-09T11:03:00;3.05;;;1.33;;
44925;SDS011;30662;51.210;7.656;2022-07-09T11:05:31;3.05;;;1.65;;
44925;SDS011;30662;51.210;7.656;2022-07-09T11:08:02;2.20;;;1.50;;
44925;SDS011;30662;51.210;7.656;2022-07-09T11:10:30;3.10;;;1.40;;
44925;SDS011;30662;51.210;7.656;2022-07-09T11:12:58;6.07;;;2.08;;
44925;SDS011;30662;51.210;7.656;2022-07-09T11:15:27;4.40;;;2.78;;
44925;SDS011;30662;51.210;7.656;2022-07-09T11:17:55;3.05;;;2.10;;
44925;SDS011;30662;51.210;7.656;2022-07-09T11:20:22;2.03;;;1.55;;
44925;SDS011;30662;51.210;7.656;2022-07-09T11:22:49;4.90;;;1.92;;
44925;SDS011;30662;51.210;7.656;2022-07-09T11:25:23;3.47;;;2.15;;
44925;SDS011;30662;51.210;7.656;2022-07-09T11:27:56;4.85;;;2.03;;
44925;SDS011;30662;51.210;7.656;2022-07-09T11:30:23;4.88;;;2.17;;
44925;SDS011;30662;51.210;7.656;2022-07-09T11:32:50;5.95;;;2.25;;
44925;SDS011;30662;51.210;7.656;2022-07-09T11:35:29;2.38;;;1.90;;
44925;SDS011;30662;51.210;7.656;2022-07-09T11:38:01;5.63;;;2.28;;
44925;SDS011;30662;51.210;7.656;2022-07-09T11:40:29;5.93;;;2.00;;
44925;SDS011;30662;51.210;7.656;2022-07-09T11:42:55;2.10;;;1.50;;
44925;SDS011;30662;51.210;7.656;2022-07-09T11:45:23;3.08;;;1.65;;
44925;SDS011;30662;51.210;7.656;2022-07-09T11:47:50;3.42;;;2.40;;
44925;SDS011;30662;51.210;7.656;2022-07-09T11:50:30;3.05;;;2.30;;
44925;SDS011;30662;51.210;7.656;2022-07-09T11:52:57;2.90;;;1.67;;
44925;SDS011;30662;51.210;7.656;2022-07-09T11:55:30;3.72;;;1.70;;
44925;SDS011;30662;51.210;7.656;2022-07-09T11:57:57;5.85;;;2.17;;
44925;SDS011;30662;51.210;7.656;2022-07-09T12:00:29;2.20;;;1.80;;
44925;SDS011;30662;51.210;7.656;2022-07-09T12:02:57;3.78;;;2.20;;
44925;SDS011;30662;51.210;7.656;2022-07-09T12:05:26;3.70;;;2.03;;
44925;SDS011;30662;51.210;7.656;2022-07-09T12:07:56;5.28;;;2.35;;
44925;SDS011;30662;51.210;7.656;2022-07-09T12:10:27;4.38;;;1.88;;
44925;SDS011;30662;51.210;7.656;2022-07-09T12:12:55;2.13;;;1.63;;
44925;SDS011;30662;51.210;7.656;2022-07-09T12:15:22;4.20;;;1.83;;
44925;SDS011;30662;51.210;7.656;2022-07-09T12:17:52;3.03;;;1.70;;
44925;SDS011;30662;51.210;7.656;2022-07-09T12:20:23;2.55;;;1.60;;
44925;SDS011;30662;51.210;7.656;2022-07-09T12:22:50;4.38;;;2.10;;
44925;SDS011;30662;51.210;7.656;2022-07-09T12:25:17;2.85;;;1.73;;
44925;SDS011;30662;51.210;7.656;2022-07-09T12:27:44;2.08;;;1.58;;
44925;SDS011;30662;51.210;7.656;2022-07-09T12:30:11;3.03;;;1.40;;
44925;SDS011;30662;51.210;7.656;2022-07-09T12:32:38;1.30;;;1.08;;
44925;SDS011;30662;51.210;7.656;2022-07-09T12:35:05;1.80;;;1.40;;
44925;SDS011;30662;51.210;7.656;2022-07-09T12:37:32;1.75;;;1.27;;
44925;SDS011;30662;51.210;7.656;2022-07-09T12:39:59;6.03;;;1.73;;
44925;SDS011;30662;51.210;7.656;2022-07-09T12:42:26;3.25;;;1.92;;
44925;SDS011;30662;51.210;7.656;2022-07-09T12:44:52;2.25;;;1.50;;
44925;SDS011;30662;51.210;7.656;2022-07-09T12:47:18;3.55;;;1.42;;
44925;SDS011;30662;51.210;7.656;2022-07-09T12:49:44;2.10;;;1.52;;
44925;SDS011;30662;51.210;7.656;2022-07-09T12:52:10;1.73;;;1.33;;
44925;SDS011;30662;51.210;7.656;2022-07-09T12:54:36;4.47;;;1.20;;
44925;SDS011;30662;51.210;7.656;2022-07-09T12:57:02;2.78;;;1.40;;
44925;SDS011;30662;51.210;7.656;2022-07-09T12:59:35;3.72;;;1.70;;
44925;SDS011;30662;51.210;7.656;2022-07-09T13:02:01;4.05;;;1.60;;
44925;SDS011;30662;51.210;7.656;2022-07-09T13:04:27;4.30;;;1.58;;
44925;SDS011;30662;51.210;7.656;2022-07-09T13:06:53;2.45;;;1.60;;
44925;SDS011;30662;51.210;7.656;2022-07-09T13:09:19;5.70;;;1.40;;
44925;SDS011;30662;51.210;7.656;2022-07-09T13:11:45;3.58;;;1.55;;
44925;SDS011;30662;51.210;7.656;2022-07-09T13:14:11;2.17;;;1.70;;
44925;SDS011;30662;51.210;7.656;2022-07-09T13:16:37;2.03;;;1.60;;
44925;SDS011;30662;51.210;7.656;2022-07-09T13:19:03;2.08;;;1.90;;
44925;SDS011;30662;51.210;7.656;2022-07-09T13:21:30;2.78;;;1.77;;
44925;SDS011;30662;51.210;7.656;2022-07-09T13:23:57;6.65;;;1.60;;
44925;SDS011;30662;51.210;7.656;2022-07-09T13:26:23;4.15;;;1.90;;
44925;SDS011;30662;51.210;7.656;2022-07-09T13:28:49;3.08;;;1.70;;
44925;SDS011;30662;51.210;7.656;2022-07-09T13:31:15;2.15;;;1.58;;
44925;SDS011;30662;51.210;7.656;2022-07-09T13:33:41;2.83;;;1.73;;
44925;SDS011;30662;51.210;7.656;2022-07-09T13:36:07;1.95;;;1.67;;
44925;SDS011;30662;51.210;7.656;2022-07-09T13:38:34;3.47;;;1.80;;
44925;SDS011;30662;51.210;7.656;2022-07-09T13:41:01;2.60;;;1.98;;
44925;SDS011;30662;51.210;7.656;2022-07-09T13:43:27;3.78;;;2.17;;
44925;SDS011;30662;51.210;7.656;2022-07-09T13:46:01;3.20;;;1.77;;
44925;SDS011;30662;51.210;7.656;2022-07-09T13:48:27;2.20;;;1.98;;
44925;SDS011;30662;51.210;7.656;2022-07-09T13:50:53;4.45;;;1.80;;
44925;SDS011;30662;51.210;7.656;2022-07-09T13:53:19;3.95;;;2.30;;
44925;SDS011;30662;51.210;7.656;2022-07-09T13:55:46;2.10;;;1.90;;
44925;SDS011;30662;51.210;7.656;2022-07-09T13:58:12;4.95;;;2.13;;
44925;SDS011;30662;51.210;7.656;2022-07-09T14:00:38;3.92;;;2.70;;
44925;SDS011;30662;51.210;7.656;2022-07-09T14:03:04;5.95;;;2.75;;
44925;SDS011;30662;51.210;7.656;2022-07-09T14:05:31;4.45;;;2.90;;
44925;SDS011;30662;51.210;7.656;2022-07-09T14:07:57;3.95;;;3.13;;
44925;SDS011;30662;51.210;7.656;2022-07-09T14:10:26;5.53;;;3.78;;
44925;SDS011;30662;51.210;7.656;2022-07-09T14:12:52;6.43;;;4.53;;
44925;SDS011;30662;51.210;7.656;2022-07-09T14:15:18;8.32;;;5.25;;
44925;SDS011;30662;51.210;7.656;2022-07-09T14:17:46;7.03;;;4.90;;
44925;SDS011;30662;51.210;7.656;2022-07-09T14:20:12;6.97;;;6.18;;
44925;SDS011;30662;51.210;7.656;2022-07-09T14:22:37;7.40;;;6.63;;
44925;SDS011;30662;51.210;7.656;2022-07-09T14:25:03;6.47;;;5.88;;
44925;SDS011;30662;51.210;7.656;2022-07-09T14:27:30;7.68;;;6.88;;
44925;SDS011;30662;51.210;7.656;2022-07-09T14:29:56;7.40;;;5.90;;
44925;SDS011;30662;51.210;7.656;2022-07-09T14:32:22;7.20;;;6.57;;
44925;SDS011;30662;51.210;7.656;2022-07-09T14:34:48;7.05;;;6.45;;
44925;SDS011;30662;51.210;7.656;2022-07-09T14:37:14;7.15;;;5.90;;
44925;SDS011;30662;51.210;7.656;2022-07-09T14:39:40;6.20;;;5.63;;
44925;SDS011;30662;51.210;7.656;2022-07-09T14:42:06;6.63;;;5.82;;
44925;SDS011;30662;51.210;7.656;2022-07-09T14:44:32;6.70;;;5.47;;